createdAt,value
2023-03-22T00:01:45.854Z,30.95
2023-03-22T00:04:14.081Z,33.08
2023-03-22T00:06:42.270Z,34.30
2023-03-22T00:09:11.027Z,34.60
2023-03-22T00:11:39.521Z,32.67
2023-03-22T00:14:09.824Z,36.55
2023-03-22T00:16:40.631Z,34.83
2023-03-22T00:19:11.689Z,34.28
2023-03-22T00:21:39.793Z,34.80
2023-03-22T00:24:08.913Z,33.03
2023-03-22T00:26:38.450Z,35.70
2023-03-22T00:29:06.877Z,36.92
2023-03-22T00:31:36.470Z,35.53
2023-03-22T00:34:04.737Z,36.78
2023-03-22T00:36:33.005Z,37.80
2023-03-22T00:39:02.694Z,39.15
2023-03-22T00:41:31.033Z,35.92
2023-03-22T00:43:59.484Z,36.63
2023-03-22T00:46:29.486Z,36.33
2023-03-22T00:48:59.221Z,37.33
2023-03-22T00:51:27.264Z,38.50
2023-03-22T00:53:55.344Z,37.25
2023-03-22T00:56:25.518Z,37.42
2023-03-22T00:58:53.635Z,37.35
2023-03-22T01:01:21.904Z,39.03
2023-03-22T01:03:51.131Z,37.53
2023-03-22T01:06:20.753Z,38.55
2023-03-22T01:08:50.796Z,37.88
2023-03-22T01:11:19.256Z,37.63
2023-03-22T01:13:48.185Z,37.17
2023-03-22T01:16:16.911Z,36.22
2023-03-22T01:18:45.511Z,36.53
2023-03-22T01:21:14.350Z,35.90
2023-03-22T01:23:44.409Z,35.92
2023-03-22T01:26:12.465Z,33.40
2023-03-22T01:28:41.255Z,35.13
2023-03-22T01:31:12.202Z,34.17
2023-03-22T01:33:41.838Z,32.40
2023-03-22T01:36:14.454Z,32.90
2023-03-22T01:38:43.810Z,33.65
2023-03-22T01:41:12.881Z,33.15
2023-03-22T01:43:41.170Z,33.80
2023-03-22T01:46:10.196Z,32.17
2023-03-22T01:48:42.138Z,32.95
2023-03-22T01:51:14.219Z,31.55
2023-03-22T01:53:46.546Z,32.35
2023-03-22T01:58:43.552Z,32.33
2023-03-22T02:01:17.514Z,30.90
2023-03-22T02:03:51.114Z,30.65
2023-03-22T02:06:19.667Z,31.02
2023-03-22T02:08:49.817Z,29.83
2023-03-22T02:11:19.291Z,31.75
2023-03-22T02:14:05.336Z,29.27
2023-03-22T02:16:40.185Z,30.23
2023-03-22T02:19:33.393Z,31.23
2023-03-22T02:22:14.586Z,29.33
2023-03-22T02:25:25.584Z,31.00
2023-03-22T02:28:16.820Z,29.75
2023-03-22T02:31:02.191Z,30.90
2023-03-22T02:33:47.346Z,28.27
2023-03-22T02:36:31.107Z,29.67
2023-03-22T02:39:19.741Z,29.23
2023-03-22T02:41:56.280Z,28.40
2023-03-22T02:44:28.275Z,28.77
2023-03-22T02:47:02.053Z,27.48
2023-03-22T02:49:37.677Z,25.75
2023-03-22T02:52:13.108Z,28.00
2023-03-22T02:54:46.256Z,28.92
2023-03-22T02:57:21.061Z,27.33
2023-03-22T02:59:51.406Z,26.25
2023-03-22T03:02:20.829Z,26.38
2023-03-22T03:04:51.380Z,27.55
2023-03-22T03:07:23.082Z,28.42
2023-03-22T03:09:53.274Z,26.67
2023-03-22T03:12:23.625Z,27.52
2023-03-22T03:14:52.041Z,29.00
2023-03-22T03:17:37.267Z,26.88
2023-03-22T03:20:15.252Z,26.70
2023-03-22T03:22:51.118Z,25.38
2023-03-22T03:25:26.197Z,25.88
2023-03-22T03:28:00.150Z,26.08
2023-03-22T03:30:33.386Z,26.35
2023-03-22T03:33:04.484Z,26.00
2023-03-22T03:35:38.013Z,25.75
2023-03-22T03:38:09.980Z,23.48
2023-03-22T03:40:42.921Z,23.73
2023-03-22T03:43:25.478Z,26.55
2023-03-22T03:45:55.767Z,24.60
2023-03-22T03:48:26.009Z,23.67
2023-03-22T03:50:55.632Z,23.60
2023-03-22T03:53:23.890Z,23.65
2023-03-22T03:55:54.453Z,23.02
2023-03-22T03:58:25.763Z,22.85
2023-03-22T04:00:56.484Z,23.50
2023-03-22T04:03:24.500Z,23.42
2023-03-22T04:05:52.565Z,23.63
2023-03-22T04:08:20.781Z,23.50
2023-03-22T04:10:52.328Z,23.23
2023-03-22T04:13:24.711Z,23.17
2023-03-22T04:15:58.083Z,22.38
2023-03-22T04:18:29.649Z,21.25
2023-03-22T04:20:58.140Z,21.20
2023-03-22T04:23:26.537Z,22.48
2023-03-22T04:25:54.924Z,23.08
2023-03-22T04:28:26.097Z,22.17
2023-03-22T04:30:57.447Z,21.65
2023-03-22T04:33:27.306Z,22.48
2023-03-22T04:36:02.500Z,23.02
2023-03-22T04:38:31.576Z,21.67
2023-03-22T04:41:00.614Z,21.90
2023-03-22T04:43:34.778Z,21.08
2023-03-22T04:46:03.273Z,21.73
2023-03-22T04:48:31.650Z,21.80
2023-03-22T04:51:04.312Z,21.67
2023-03-22T04:53:32.587Z,23.02
2023-03-22T04:56:02.896Z,23.67
2023-03-22T04:58:34.094Z,23.23
2023-03-22T05:01:04.045Z,24.55
2023-03-22T05:03:33.279Z,21.48
2023-03-22T05:06:04.046Z,23.15
2023-03-22T05:08:39.712Z,22.42
2023-03-22T05:11:09.569Z,21.88
2023-03-22T05:13:39.345Z,22.77
2023-03-22T05:16:08.768Z,21.08
2023-03-22T05:18:38.037Z,20.67
2023-03-22T05:21:08.838Z,20.63
2023-03-22T05:23:37.032Z,22.30
2023-03-22T05:26:05.400Z,20.85
2023-03-22T05:28:34.330Z,20.85
2023-03-22T05:31:11.190Z,21.35
2023-03-22T05:33:39.458Z,20.98
2023-03-22T05:36:11.694Z,20.67
2023-03-22T05:38:43.098Z,22.00
2023-03-22T05:41:16.633Z,19.85
2023-03-22T05:43:44.621Z,22.23
2023-03-22T05:46:14.123Z,20.80
2023-03-22T05:48:42.660Z,21.40
2023-03-22T05:51:13.967Z,21.33
2023-03-22T05:53:41.963Z,19.67
2023-03-22T05:56:11.080Z,20.90
2023-03-22T05:58:42.285Z,20.85
2023-03-22T06:01:12.274Z,21.65
2023-03-22T06:03:47.396Z,21.38
2023-03-22T06:06:16.895Z,19.58
2023-03-22T06:08:45.326Z,20.88
2023-03-22T06:11:13.843Z,19.67
2023-03-22T06:13:44.904Z,19.27
2023-03-22T06:16:14.194Z,18.20
2023-03-22T06:18:43.677Z,20.95
2023-03-22T06:21:11.679Z,21.65
2023-03-22T06:23:39.655Z,18.17
2023-03-22T06:26:11.336Z,19.77
2023-03-22T06:28:39.387Z,18.15
2023-03-22T06:31:08.534Z,17.55
2023-03-22T06:33:37.316Z,18.48
2023-03-22T06:36:07.909Z,18.75
2023-03-22T06:38:37.429Z,15.55
2023-03-22T06:41:06.256Z,16.95
2023-03-22T06:43:34.239Z,15.70
2023-03-22T06:46:02.481Z,16.02
2023-03-22T06:48:30.632Z,16.20
2023-03-22T06:50:59.604Z,15.10
2023-03-22T06:53:29.230Z,16.48
2023-03-22T06:55:57.241Z,16.20
2023-03-22T06:58:25.495Z,15.85
2023-03-22T07:00:53.745Z,16.25
2023-03-22T07:03:22.458Z,17.30
2023-03-22T07:05:50.891Z,17.42
2023-03-22T07:08:19.202Z,15.60
2023-03-22T07:10:52.137Z,16.92
2023-03-22T07:13:20.460Z,16.88
2023-03-22T07:15:50.427Z,16.52
2023-03-22T07:18:18.386Z,16.40
2023-03-22T07:20:46.927Z,16.63
2023-03-22T07:23:15.460Z,14.65
2023-03-22T07:25:44.662Z,16.13
2023-03-22T07:28:15.046Z,15.43
2023-03-22T07:30:43.318Z,15.75
2023-03-22T07:33:12.206Z,16.25
2023-03-22T07:35:40.694Z,15.13
2023-03-22T07:38:10.142Z,16.23
2023-03-22T07:40:39.553Z,14.15
2023-03-22T07:43:07.937Z,14.98
2023-03-22T07:45:37.589Z,15.02
2023-03-22T07:48:06.093Z,13.68
2023-03-22T07:50:34.082Z,16.20
2023-03-22T07:53:04.068Z,14.48
2023-03-22T07:55:34.849Z,13.88
2023-03-22T07:58:03.649Z,12.98
2023-03-22T08:00:31.842Z,14.40
2023-03-22T08:03:02.643Z,13.13
2023-03-22T08:05:32.236Z,12.48
2023-03-22T08:08:00.645Z,13.43
2023-03-22T08:10:29.160Z,11.77
2023-03-22T08:12:57.554Z,12.90
2023-03-22T08:15:26.959Z,12.23
2023-03-22T08:17:58.956Z,13.25
2023-03-22T08:20:31.445Z,11.50
2023-03-22T08:22:59.701Z,13.23
2023-03-22T08:25:28.193Z,12.95
2023-03-22T08:27:57.541Z,11.13
2023-03-22T08:30:26.868Z,11.70
2023-03-22T08:32:57.493Z,12.27
2023-03-22T08:35:29.695Z,13.07
2023-03-22T08:37:59.257Z,11.38
2023-03-22T08:40:27.488Z,11.70
2023-03-22T08:42:55.638Z,12.73
2023-03-22T08:45:26.713Z,11.20
2023-03-22T08:47:54.737Z,10.75
2023-03-22T08:50:23.345Z,12.05
2023-03-22T08:52:51.938Z,9.85
2023-03-22T08:55:24.613Z,10.32
2023-03-22T08:57:58.990Z,9.27
2023-03-22T09:00:33.979Z,9.48
2023-03-22T09:03:07.225Z,9.23
2023-03-22T09:05:35.543Z,9.18
2023-03-22T09:08:06.589Z,9.32
2023-03-22T09:10:39.706Z,9.02
2023-03-22T09:13:08.094Z,8.77
2023-03-22T09:15:36.545Z,9.57
2023-03-22T09:18:05.217Z,9.70
2023-03-22T09:20:34.663Z,8.80
2023-03-22T09:23:02.922Z,9.13
2023-03-22T09:25:30.992Z,8.70
2023-03-22T09:28:00.543Z,7.95
2023-03-22T09:30:28.670Z,8.48
2023-03-22T09:32:57.030Z,9.15
2023-03-22T09:35:26.041Z,8.35
2023-03-22T09:37:56.273Z,8.40
2023-03-22T09:40:27.479Z,7.63
2023-03-22T09:42:57.272Z,7.95
2023-03-22T09:45:38.530Z,7.60
2023-03-22T09:48:09.403Z,7.53
2023-03-22T09:50:41.523Z,8.05
2023-03-22T09:53:13.699Z,7.90
2023-03-22T09:55:45.049Z,6.95
2023-03-22T09:58:21.021Z,7.67
2023-03-22T10:00:57.679Z,7.22
2023-03-22T10:03:38.752Z,7.53
2023-03-22T10:06:10.041Z,6.97
2023-03-22T10:08:46.054Z,7.40
2023-03-22T10:11:23.198Z,6.63
2023-03-22T10:13:58.780Z,7.00
2023-03-22T10:16:33.791Z,7.43
2023-03-22T10:19:06.808Z,7.15
2023-03-22T10:21:36.272Z,7.65
2023-03-22T10:24:09.474Z,7.32
2023-03-22T10:26:39.711Z,7.30
2023-03-22T10:29:13.352Z,7.20
2023-03-22T10:31:44.658Z,6.60
2023-03-22T10:34:18.030Z,6.47
2023-03-22T10:36:50.358Z,7.00
2023-03-22T10:41:49.994Z,5.53
2023-03-22T10:44:19.832Z,5.90
2023-03-22T10:46:51.247Z,5.47
2023-03-22T10:49:27.283Z,5.82
2023-03-22T10:51:59.446Z,4.43
2023-03-22T10:54:28.006Z,4.85
2023-03-22T10:56:56.650Z,4.50
2023-03-22T10:59:47.271Z,4.50
2023-03-22T11:02:21.763Z,4.28
2023-03-22T11:04:52.012Z,4.13
2023-03-22T11:07:35.623Z,4.10
2023-03-22T11:10:22.049Z,3.50
2023-03-22T11:12:53.476Z,5.32
2023-03-22T11:15:28.143Z,5.07
2023-03-22T11:18:02.155Z,4.43
2023-03-22T11:20:31.246Z,4.20
2023-03-22T11:23:02.875Z,3.80
2023-03-22T11:25:32.921Z,4.10
2023-03-22T11:28:09.882Z,4.13
2023-03-22T11:30:39.781Z,3.90
2023-03-22T11:33:19.270Z,3.78
2023-03-22T11:35:50.917Z,3.45
2023-03-22T11:38:30.698Z,4.07
2023-03-22T11:41:02.013Z,4.22
2023-03-22T11:43:34.309Z,4.03
2023-03-22T11:48:33.942Z,4.00
2023-03-22T11:51:09.159Z,3.78
2023-03-22T11:53:41.243Z,5.03
2023-03-22T11:56:12.208Z,4.50
2023-03-22T11:58:59.875Z,4.30
2023-03-22T12:01:39.492Z,4.13
2023-03-22T12:04:12.735Z,4.55
2023-03-22T12:06:42.141Z,4.95
2023-03-22T12:09:19.028Z,4.93
2023-03-22T12:11:52.852Z,4.55
2023-03-22T12:14:25.690Z,4.25
2023-03-22T12:16:56.605Z,4.78
2023-03-22T12:19:39.275Z,4.90
2023-03-22T12:22:12.432Z,4.88
2023-03-22T12:24:42.880Z,4.38
2023-03-22T12:27:17.786Z,4.60
2023-03-22T12:29:48.995Z,4.22
2023-03-22T12:32:19.145Z,4.07
2023-03-22T12:34:52.526Z,4.05
2023-03-22T12:37:23.219Z,3.85
2023-03-22T12:39:53.466Z,3.75
2023-03-22T12:42:25.225Z,3.28
2023-03-22T12:45:05.076Z,4.03
2023-03-22T12:47:38.675Z,3.55
2023-03-22T12:50:12.763Z,3.13
2023-03-22T12:52:45.723Z,3.33
2023-03-22T12:55:22.469Z,2.53
2023-03-22T12:57:54.840Z,3.42
2023-03-22T13:00:29.155Z,3.58
2023-03-22T13:03:02.332Z,3.03
2023-03-22T13:05:34.775Z,2.90
2023-03-22T13:08:05.759Z,3.55
2023-03-22T13:10:52.645Z,3.10
2023-03-22T13:13:47.194Z,2.83
2023-03-22T13:16:22.752Z,3.30
2023-03-22T13:19:02.879Z,2.95
2023-03-22T13:21:36.729Z,3.17
2023-03-22T13:24:23.964Z,2.95
2023-03-22T13:26:53.742Z,3.20
2023-03-22T13:29:24.621Z,3.13
2023-03-22T13:31:58.937Z,2.70
2023-03-22T13:34:38.556Z,2.92
2023-03-22T13:37:11.984Z,3.22
2023-03-22T13:39:40.904Z,3.10
2023-03-22T13:42:19.710Z,2.92
2023-03-22T13:44:53.803Z,3.00
2023-03-22T13:47:38.180Z,2.33
2023-03-22T13:50:18.182Z,2.92
2023-03-22T13:52:58.867Z,2.63
2023-03-22T13:55:43.188Z,1.90
2023-03-22T13:58:12.870Z,3.47
2023-03-22T14:00:48.159Z,2.30
2023-03-22T14:03:24.627Z,3.13
2023-03-22T14:06:06.289Z,3.10
2023-03-22T14:08:37.336Z,2.40
2023-03-22T14:11:15.588Z,2.63
2023-03-22T14:13:47.412Z,2.50
2023-03-22T14:16:19.685Z,2.80
2023-03-22T14:18:55.019Z,2.60
2023-03-22T14:21:26.829Z,2.30
